createdAt,value
2023-03-08T00:00:22.013Z,0.90
2023-03-08T00:02:49.876Z,0.60
2023-03-08T00:05:17.898Z,0.70
2023-03-08T00:07:47.040Z,1.30
2023-03-08T00:10:14.971Z,0.60
2023-03-08T00:12:42.747Z,0.82
2023-03-08T00:15:11.271Z,1.20
2023-03-08T00:17:40.122Z,0.60
2023-03-08T00:20:10.312Z,0.63
2023-03-08T00:22:38.397Z,0.60
2023-03-08T00:25:09.816Z,0.57
2023-03-08T00:27:38.448Z,0.70
2023-03-08T00:30:07.337Z,0.90
2023-03-08T00:32:35.255Z,0.93
2023-03-08T00:35:03.165Z,0.88
2023-03-08T00:37:31.167Z,0.63
2023-03-08T00:39:59.144Z,0.60
2023-03-08T00:42:28.326Z,0.50
2023-03-08T00:44:56.108Z,0.63
2023-03-08T00:47:23.996Z,0.50
2023-03-08T00:49:51.797Z,1.50
2023-03-08T00:52:19.644Z,0.50
2023-03-08T00:54:47.477Z,0.50
2023-03-08T00:57:16.337Z,0.70
2023-03-08T00:59:45.531Z,0.68
2023-03-08T01:02:13.388Z,0.60
2023-03-08T01:04:41.253Z,0.90
2023-03-08T01:07:09.101Z,0.60
2023-03-08T01:09:36.901Z,0.60
2023-03-08T01:12:05.184Z,0.50
2023-03-08T01:14:32.992Z,0.60
2023-03-08T01:17:02.215Z,0.80
2023-03-08T01:19:30.008Z,0.60
2023-03-08T01:21:57.862Z,0.60
2023-03-08T01:24:25.786Z,0.60
2023-03-08T01:26:55.763Z,1.25
2023-03-08T01:29:23.596Z,1.02
2023-03-08T01:31:51.413Z,0.70
2023-03-08T01:34:20.954Z,1.13
2023-03-08T01:36:48.743Z,0.60
2023-03-08T01:39:16.684Z,0.65
2023-03-08T01:41:44.459Z,0.80
2023-03-08T01:44:16.512Z,0.65
2023-03-08T01:46:44.576Z,0.60
2023-03-08T01:49:16.640Z,0.80
2023-03-08T01:51:50.864Z,1.25
2023-03-08T01:54:23.698Z,1.10
2023-03-08T01:56:54.809Z,0.73
2023-03-08T01:59:24.160Z,0.80
2023-03-08T02:01:52.024Z,1.00
2023-03-08T02:04:20.333Z,0.70
2023-03-08T02:06:49.536Z,1.58
2023-03-08T02:09:17.404Z,1.27
2023-03-08T02:11:45.538Z,0.68
2023-03-08T02:14:13.383Z,0.70
2023-03-08T02:16:41.176Z,0.98
2023-03-08T02:19:15.668Z,0.65
2023-03-08T02:21:43.546Z,1.23
2023-03-08T02:24:21.693Z,1.00
2023-03-08T02:26:50.961Z,0.80
2023-03-08T02:29:18.886Z,0.90
2023-03-08T02:31:46.837Z,0.98
2023-03-08T02:34:14.743Z,0.80
2023-03-08T02:36:42.657Z,1.23
2023-03-08T02:39:10.468Z,0.95
2023-03-08T02:41:39.600Z,1.00
2023-03-08T02:44:07.375Z,1.77
2023-03-08T02:46:36.103Z,0.75
2023-03-08T02:49:04.036Z,0.60
2023-03-08T02:51:31.980Z,1.23
2023-03-08T02:54:00.159Z,1.92
2023-03-08T02:56:28.308Z,1.95
2023-03-08T02:58:57.449Z,1.73
2023-03-08T03:01:25.423Z,1.23
2023-03-08T03:03:55.046Z,1.02
2023-03-08T03:06:23.152Z,1.10
2023-03-08T03:08:51.131Z,1.55
2023-03-08T03:11:20.530Z,0.95
2023-03-08T03:13:48.524Z,0.82
2023-03-08T03:16:18.005Z,1.55
2023-03-08T03:18:45.871Z,1.38
2023-03-08T03:21:14.964Z,0.82
2023-03-08T03:23:43.031Z,1.33
2023-03-08T03:26:13.247Z,0.80
2023-03-08T03:28:41.288Z,0.85
2023-03-08T03:31:10.440Z,2.28
2023-03-08T03:33:40.397Z,1.60
2023-03-08T03:36:09.886Z,1.02
2023-03-08T03:38:37.823Z,1.20
2023-03-08T03:41:07.913Z,1.27
2023-03-08T03:43:36.399Z,1.10
2023-03-08T03:46:06.777Z,1.20
2023-03-08T03:48:35.986Z,1.20
2023-03-08T03:51:06.873Z,1.13
2023-03-08T03:53:36.470Z,1.27
2023-03-08T03:56:06.006Z,1.13
2023-03-08T03:58:34.177Z,0.93
2023-03-08T04:01:02.101Z,0.80
2023-03-08T04:03:29.963Z,0.70
2023-03-08T04:06:08.651Z,1.13
2023-03-08T04:08:41.876Z,2.70
2023-03-08T04:11:10.216Z,0.85
2023-03-08T04:13:38.687Z,1.10
2023-03-08T04:16:13.131Z,1.27
2023-03-08T04:18:41.113Z,1.17
2023-03-08T04:21:13.033Z,1.23
2023-03-08T04:23:41.091Z,1.42
2023-03-08T04:26:09.074Z,1.50
2023-03-08T04:28:37.245Z,0.70
2023-03-08T04:31:13.657Z,3.10
2023-03-08T04:33:41.596Z,1.30
2023-03-08T04:36:11.423Z,1.60
2023-03-08T04:38:39.510Z,1.30
2023-03-08T04:41:11.794Z,1.60
2023-03-08T04:43:40.239Z,1.85
2023-03-08T04:46:09.706Z,0.90
2023-03-08T04:48:37.541Z,1.90
2023-03-08T04:51:07.526Z,1.00
2023-03-08T04:53:38.438Z,2.00
2023-03-08T04:56:07.884Z,1.52
2023-03-08T04:58:36.962Z,1.60
2023-03-08T05:01:10.971Z,0.70
2023-03-08T05:03:38.962Z,1.13
2023-03-08T05:06:06.892Z,1.42
2023-03-08T05:08:36.472Z,1.00
2023-03-08T05:11:05.548Z,1.35
2023-03-08T05:13:35.256Z,2.42
2023-03-08T05:16:03.346Z,4.75
2023-03-08T05:18:31.267Z,2.20
2023-03-08T05:21:00.801Z,1.83
2023-03-08T05:23:29.722Z,1.58
2023-03-08T05:26:00.683Z,3.10
2023-03-08T05:28:30.035Z,2.25
2023-03-08T05:31:04.670Z,2.35
2023-03-08T05:33:32.933Z,3.83
2023-03-08T05:36:00.931Z,4.57
2023-03-08T05:38:29.543Z,5.07
2023-03-08T05:41:01.142Z,1.60
2023-03-08T05:43:29.027Z,2.47
2023-03-08T05:45:59.099Z,1.52
2023-03-08T05:48:27.288Z,2.63
2023-03-08T05:50:55.661Z,5.03
2023-03-08T05:53:23.964Z,5.88
2023-03-08T05:55:51.796Z,2.90
2023-03-08T05:58:20.935Z,2.30
2023-03-08T06:00:48.770Z,3.15
2023-03-08T06:03:16.639Z,1.90
2023-03-08T06:05:44.442Z,2.72
2023-03-08T06:08:12.287Z,3.30
2023-03-08T06:10:40.110Z,4.47
2023-03-08T06:13:07.866Z,2.70
2023-03-08T06:15:37.005Z,2.45
2023-03-08T06:18:05.029Z,3.25
2023-03-08T06:20:32.830Z,3.45
2023-03-08T06:23:00.642Z,5.05
2023-03-08T06:25:28.502Z,4.28
2023-03-08T06:27:56.356Z,2.80
2023-03-08T06:30:24.233Z,3.35
2023-03-08T06:32:53.469Z,5.70
2023-03-08T06:35:21.471Z,2.88
2023-03-08T06:37:49.279Z,3.00
2023-03-08T06:40:17.731Z,3.03
2023-03-08T06:42:46.013Z,3.97
2023-03-08T06:45:13.837Z,2.05
2023-03-08T06:47:41.800Z,2.58
2023-03-08T06:50:12.470Z,3.67
2023-03-08T06:52:40.353Z,2.47
2023-03-08T06:55:09.340Z,2.75
2023-03-08T06:57:37.155Z,4.35
2023-03-08T07:00:05.727Z,2.47
2023-03-08T07:02:33.562Z,1.98
2023-03-08T07:05:01.397Z,2.55
2023-03-08T07:07:30.581Z,4.00
2023-03-08T07:09:58.861Z,3.38
2023-03-08T07:12:26.757Z,4.57
2023-03-08T07:14:54.628Z,2.38
2023-03-08T07:17:22.487Z,3.22
2023-03-08T07:19:50.347Z,2.63
2023-03-08T07:22:18.182Z,4.05
2023-03-08T07:24:49.814Z,2.83
2023-03-08T07:27:17.711Z,4.20
2023-03-08T07:29:45.817Z,2.25
2023-03-08T07:32:13.813Z,2.58
2023-03-08T07:34:42.551Z,3.53
2023-03-08T07:37:13.142Z,2.80
2023-03-08T07:39:40.966Z,3.35
2023-03-08T07:42:11.080Z,1.45
2023-03-08T07:44:38.982Z,2.55
2023-03-08T07:47:09.043Z,3.22
2023-03-08T07:49:36.972Z,5.85
2023-03-08T07:52:05.170Z,2.60
2023-03-08T07:54:33.304Z,3.63
2023-03-08T07:57:01.425Z,5.50
2023-03-08T07:59:31.204Z,4.90
2023-03-08T08:01:59.054Z,3.47
2023-03-08T08:04:26.904Z,5.22
2023-03-08T08:06:54.753Z,2.30
2023-03-08T08:09:22.544Z,1.95
2023-03-08T08:11:50.323Z,3.03
2023-03-08T08:14:18.151Z,2.70
2023-03-08T08:16:47.346Z,2.92
2023-03-08T08:19:15.484Z,3.22
2023-03-08T08:21:43.331Z,3.92
2023-03-08T08:24:11.162Z,2.50
2023-03-08T08:26:39.169Z,3.20
2023-03-08T08:29:07.068Z,3.33
2023-03-08T08:31:34.996Z,4.43
2023-03-08T08:34:04.206Z,3.42
2023-03-08T08:36:32.100Z,2.92
2023-03-08T08:38:59.906Z,3.25
2023-03-08T08:41:28.015Z,2.95
2023-03-08T08:43:59.004Z,4.80
2023-03-08T08:46:30.870Z,4.53
2023-03-08T08:49:00.008Z,2.92
2023-03-08T08:51:29.360Z,3.25
2023-03-08T08:53:57.153Z,5.60
2023-03-08T08:56:28.640Z,4.00
2023-03-08T08:58:56.910Z,5.20
2023-03-08T09:01:26.426Z,4.35
2023-03-08T09:03:54.791Z,4.05
2023-03-08T09:06:24.084Z,4.43
2023-03-08T09:08:54.793Z,6.53
2023-03-08T09:11:23.124Z,5.88
2023-03-08T09:13:51.062Z,3.17
2023-03-08T09:16:20.403Z,2.35
2023-03-08T09:18:48.608Z,5.00
2023-03-08T09:21:17.313Z,3.70
2023-03-08T09:23:45.840Z,3.72
2023-03-08T09:26:15.013Z,5.60
2023-03-08T09:28:42.824Z,2.45
2023-03-08T09:31:14.881Z,4.70
2023-03-08T09:33:44.113Z,3.60
2023-03-08T09:36:12.419Z,3.25
2023-03-08T09:38:40.701Z,3.65
2023-03-08T09:41:21.384Z,5.93
2023-03-08T09:43:59.282Z,4.72
2023-03-08T09:46:33.246Z,2.00
2023-03-08T09:49:03.844Z,3.88
2023-03-08T09:51:37.018Z,3.85
2023-03-08T09:54:08.167Z,3.45
2023-03-08T09:56:41.321Z,5.28
2023-03-08T09:59:14.182Z,4.32
2023-03-08T10:01:51.874Z,3.75
2023-03-08T10:04:35.159Z,2.72
2023-03-08T10:07:22.327Z,3.28
2023-03-08T10:09:59.279Z,4.22
2023-03-08T10:12:36.610Z,4.45
2023-03-08T10:15:09.906Z,5.65
2023-03-08T10:17:45.648Z,4.55
2023-03-08T10:20:21.055Z,3.95
2023-03-08T10:22:54.426Z,3.60
2023-03-08T10:25:26.890Z,3.40
2023-03-08T10:27:58.185Z,3.88
2023-03-08T10:30:28.678Z,4.13
2023-03-08T10:33:00.474Z,3.50
2023-03-08T10:35:36.329Z,2.92
2023-03-08T10:38:05.060Z,2.72
2023-03-08T10:40:33.056Z,3.08
2023-03-08T10:43:05.769Z,4.35
2023-03-08T10:45:34.034Z,4.40
2023-03-08T10:48:03.847Z,3.85
2023-03-08T10:50:35.595Z,3.53
2023-03-08T10:53:11.250Z,3.22
2023-03-08T10:55:45.271Z,3.40
2023-03-08T10:58:30.420Z,3.25
2023-03-08T11:01:00.872Z,2.20
2023-03-08T11:03:29.279Z,2.35
2023-03-08T11:05:59.936Z,3.28
2023-03-08T11:08:31.078Z,1.95
2023-03-08T11:11:08.398Z,2.45
2023-03-08T11:13:41.686Z,3.72
2023-03-08T11:16:25.700Z,3.17
2023-03-08T11:19:04.018Z,2.65
2023-03-08T11:21:40.472Z,1.90
2023-03-08T11:24:25.905Z,4.05
2023-03-08T11:27:06.884Z,3.00
2023-03-08T11:29:48.003Z,3.33
2023-03-08T11:32:31.980Z,3.42
2023-03-08T11:35:10.193Z,2.50
2023-03-08T11:37:44.361Z,3.83
2023-03-08T11:40:25.774Z,2.45
2023-03-08T11:43:19.184Z,2.72
2023-03-08T11:45:54.388Z,3.47
2023-03-08T11:48:36.663Z,3.47
2023-03-08T11:51:10.758Z,2.25
2023-03-08T11:53:51.667Z,2.42
2023-03-08T11:56:36.028Z,2.75
2023-03-08T11:59:07.823Z,2.65
2023-03-08T12:01:44.759Z,4.78
2023-03-08T12:04:16.522Z,2.95
2023-03-08T12:06:46.481Z,2.10
2023-03-08T12:09:22.574Z,2.40
2023-03-08T12:11:56.064Z,3.60
2023-03-08T12:14:28.625Z,2.63
2023-03-08T12:17:02.257Z,2.78
2023-03-08T12:19:37.845Z,2.60
2023-03-08T12:22:21.681Z,3.10
2023-03-08T12:24:56.508Z,2.63
2023-03-08T12:27:31.517Z,4.85
2023-03-08T12:30:05.593Z,4.75
2023-03-08T12:32:39.249Z,3.40
2023-03-08T12:35:24.708Z,3.22
2023-03-08T12:37:57.205Z,2.95
2023-03-08T12:40:40.768Z,2.83
2023-03-08T12:43:12.763Z,3.90
2023-03-08T12:45:41.485Z,2.60
2023-03-08T12:48:20.818Z,12.00
2023-03-08T12:51:00.240Z,5.05
2023-03-08T12:53:35.414Z,3.10
2023-03-08T12:56:06.809Z,5.93
2023-03-08T12:58:38.323Z,5.60
2023-03-08T13:01:08.312Z,2.55
2023-03-08T13:03:42.767Z,4.70
2023-03-08T13:06:43.862Z,2.22
2023-03-08T13:09:22.740Z,10.20
2023-03-08T13:11:55.938Z,5.20
2023-03-08T13:14:27.172Z,4.55
2023-03-08T13:16:55.399Z,3.85
2023-03-08T13:19:28.348Z,3.40
2023-03-08T13:22:05.450Z,3.53
2023-03-08T13:24:41.251Z,2.78
2023-03-08T13:27:21.464Z,2.35
2023-03-08T13:29:49.689Z,2.80
2023-03-08T13:32:19.662Z,2.15
2023-03-08T13:35:00.848Z,3.42
2023-03-08T13:37:30.584Z,5.70
2023-03-08T13:40:00.801Z,3.65
2023-03-08T13:42:29.971Z,2.92
2023-03-08T13:45:09.715Z,3.70
2023-03-08T13:47:40.814Z,3.28
2023-03-08T13:50:19.694Z,3.83
2023-03-08T13:52:48.195Z,3.08
2023-03-08T13:55:21.388Z,2.20
2023-03-08T13:57:53.428Z,3.63
2023-03-08T14:00:25.966Z,2.35
2023-03-08T14:02:54.060Z,3.10
2023-03-08T14:05:25.489Z,3.35
2023-03-08T14:08:01.736Z,2.97
2023-03-08T14:10:37.555Z,2.80
2023-03-08T14:13:06.799Z,1.77
2023-03-08T14:15:39.317Z,2.50
2023-03-08T14:18:08.323Z,3.58
2023-03-08T14:20:37.844Z,2.00
2023-03-08T14:23:05.783Z,2.25
2023-03-08T14:25:33.684Z,2.20
2023-03-08T14:28:01.687Z,2.83
2023-03-08T14:30:31.371Z,2.22
2023-03-08T14:33:02.729Z,1.85
2023-03-08T14:35:33.036Z,2.85
2023-03-08T14:38:02.575Z,3.75
2023-03-08T14:40:33.028Z,2.50
2023-03-08T14:43:04.418Z,3.13
2023-03-08T14:45:36.968Z,3.25
2023-03-08T14:48:23.243Z,2.58
2023-03-08T14:50:56.651Z,2.95
2023-03-08T14:53:30.131Z,3.80
2023-03-08T14:55:59.079Z,1.35
2023-03-08T14:58:29.663Z,3.60
2023-03-08T15:00:59.200Z,2.53
2023-03-08T15:03:27.001Z,2.10
2023-03-08T15:05:55.905Z,3.00
2023-03-08T15:08:25.315Z,3.08
2023-03-08T15:10:54.525Z,2.40
2023-03-08T15:13:24.289Z,2.95
2023-03-08T15:15:52.422Z,4.45
2023-03-08T15:18:20.810Z,2.42
2023-03-08T15:20:50.759Z,2.90
2023-03-08T15:23:22.155Z,2.10
2023-03-08T15:25:50.682Z,3.47
2023-03-08T15:28:22.151Z,5.75
2023-03-08T15:30:52.630Z,2.83
2023-03-08T15:33:20.906Z,4.65
2023-03-08T15:35:49.322Z,3.50
2023-03-08T15:38:19.464Z,6.57
2023-03-08T15:40:47.279Z,2.80
2023-03-08T15:43:15.107Z,4.03
2023-03-08T15:45:44.307Z,3.05
2023-03-08T15:48:14.954Z,2.00
2023-03-08T15:50:43.854Z,2.40
2023-03-08T15:53:20.419Z,1.75
2023-03-08T15:55:53.971Z,3.08
2023-03-08T15:58:21.898Z,2.88
2023-03-08T16:00:52.118Z,2.38
2023-03-08T16:03:25.862Z,3.35
2023-03-08T16:05:53.697Z,2.72
2023-03-08T16:08:25.048Z,2.95
2023-03-08T16:10:53.270Z,2.83
2023-03-08T16:13:21.904Z,3.28
2023-03-08T16:15:51.100Z,3.42
2023-03-08T16:18:18.937Z,2.20
2023-03-08T16:20:46.715Z,3.95
2023-03-08T16:23:14.549Z,1.88
2023-03-08T16:25:43.274Z,2.80
2023-03-08T16:28:11.454Z,2.17
2023-03-08T16:30:40.874Z,3.40
2023-03-08T16:33:10.108Z,3.47
2023-03-08T16:35:37.897Z,2.47
2023-03-08T16:38:05.685Z,2.50
2023-03-08T16:40:33.489Z,1.92
2023-03-08T16:43:01.310Z,2.20
2023-03-08T16:45:29.079Z,4.13
2023-03-08T16:47:56.920Z,1.70
2023-03-08T16:50:27.510Z,3.28
2023-03-08T16:52:55.969Z,1.95
2023-03-08T16:55:24.315Z,3.28
2023-03-08T16:57:52.477Z,2.22
2023-03-08T17:00:21.268Z,2.97
2023-03-08T17:02:49.113Z,3.65
2023-03-08T17:05:17.002Z,2.65
2023-03-08T17:07:47.566Z,2.75
2023-03-08T17:10:15.798Z,3.13
2023-03-08T17:12:43.609Z,1.42
2023-03-08T17:15:12.486Z,1.65
2023-03-08T17:17:41.321Z,1.90
2023-03-08T17:20:10.640Z,2.08
2023-03-08T17:22:38.468Z,2.22
2023-03-08T17:25:09.207Z,2.90
2023-03-08T17:27:37.056Z,1.48
2023-03-08T17:30:05.737Z,1.50
2023-03-08T17:32:33.565Z,1.10
2023-03-08T17:35:01.411Z,1.10
2023-03-08T17:37:29.247Z,1.80
2023-03-08T17:39:57.065Z,1.23
2023-03-08T17:42:26.369Z,0.98
2023-03-08T17:44:54.150Z,1.30
2023-03-08T17:47:21.962Z,1.30
2023-03-08T17:49:50.053Z,2.22
2023-03-08T17:52:17.838Z,1.70
2023-03-08T17:54:45.799Z,2.05
2023-03-08T17:57:13.588Z,0.90
2023-03-08T17:59:42.733Z,1.83
2023-03-08T18:02:12.385Z,1.52
2023-03-08T18:04:43.740Z,2.17
2023-03-08T18:07:11.619Z,1.48
2023-03-08T18:09:39.594Z,1.83
2023-03-08T18:12:08.984Z,1.35
2023-03-08T18:14:39.955Z,1.73
2023-03-08T18:17:10.038Z,2.53
2023-03-08T18:19:37.866Z,2.33
2023-03-08T18:22:05.855Z,2.53
2023-03-08T18:24:34.118Z,1.45
2023-03-08T18:27:05.288Z,1.65
2023-03-08T18:29:33.693Z,2.47
2023-03-08T18:32:01.823Z,3.28
2023-03-08T18:34:31.011Z,1.98
2023-03-08T18:36:59.221Z,1.73
2023-03-08T18:39:27.106Z,3.50
2023-03-08T18:41:56.857Z,2.47
2023-03-08T18:44:25.304Z,2.53
2023-03-08T18:46:53.247Z,2.47
2023-03-08T18:49:21.149Z,1.23
2023-03-08T18:51:50.734Z,2.05
2023-03-08T18:54:20.682Z,3.72
2023-03-08T18:56:49.862Z,2.85
2023-03-08T18:59:17.677Z,1.55
2023-03-08T19:01:45.542Z,1.77
2023-03-08T19:04:13.460Z,0.95
2023-03-08T19:06:41.397Z,1.67
2023-03-08T19:09:11.861Z,1.63
2023-03-08T19:11:40.062Z,2.00
2023-03-08T19:14:08.216Z,2.35
2023-03-08T19:16:36.815Z,1.60
2023-03-08T19:19:06.725Z,3.05
2023-03-08T19:21:35.848Z,1.77
2023-03-08T19:24:04.265Z,1.80
2023-03-08T19:26:36.798Z,2.47
2023-03-08T19:29:06.998Z,2.03
2023-03-08T19:31:35.871Z,2.05
2023-03-08T19:34:05.704Z,5.05
2023-03-08T19:36:35.316Z,2.25
2023-03-08T19:39:03.895Z,1.52
2023-03-08T19:41:33.037Z,1.35
2023-03-08T19:44:00.923Z,2.88
2023-03-08T19:46:28.744Z,1.80
2023-03-08T19:48:56.586Z,2.67
2023-03-08T19:51:24.378Z,1.75
2023-03-08T19:53:52.320Z,2.17
2023-03-08T19:56:21.234Z,2.45
2023-03-08T19:58:50.706Z,1.70
2023-03-08T20:01:20.113Z,1.55
2023-03-08T20:03:48.356Z,1.42
2023-03-08T20:06:23.643Z,3.70
2023-03-08T20:08:53.026Z,3.05
2023-03-08T20:11:21.285Z,2.42
2023-03-08T20:13:50.503Z,2.67
2023-03-08T20:16:19.241Z,1.83
2023-03-08T20:18:49.129Z,2.88
2023-03-08T20:21:17.351Z,3.28
2023-03-08T20:23:45.354Z,2.72
2023-03-08T20:26:13.477Z,3.40
2023-03-08T20:28:41.584Z,2.80
2023-03-08T20:31:11.926Z,2.05
2023-03-08T20:33:40.116Z,1.40
2023-03-08T20:36:08.721Z,2.40
2023-03-08T20:38:36.568Z,1.90
2023-03-08T20:41:08.473Z,2.22
2023-03-08T20:43:36.690Z,1.52
2023-03-08T20:46:06.815Z,1.35
2023-03-08T20:48:37.975Z,2.22
2023-03-08T20:51:08.264Z,1.65
2023-03-08T20:53:36.716Z,2.72
2023-03-08T20:56:06.687Z,2.78
2023-03-08T20:58:35.343Z,2.17
2023-03-08T21:01:11.120Z,2.22
2023-03-08T21:03:40.654Z,1.77
2023-03-08T21:06:13.694Z,1.35
2023-03-08T21:08:41.871Z,2.05
2023-03-08T21:11:09.960Z,1.85
2023-03-08T21:13:38.030Z,2.03
2023-03-08T21:16:08.655Z,1.90
2023-03-08T21:18:36.653Z,2.80
2023-03-08T21:21:06.380Z,1.52
2023-03-08T21:23:34.638Z,1.65
2023-03-08T21:26:02.725Z,3.67
2023-03-08T21:28:30.538Z,1.52
2023-03-08T21:30:58.357Z,1.30
2023-03-08T21:33:26.358Z,2.10
2023-03-08T21:35:54.270Z,2.45
2023-03-08T21:38:24.785Z,1.48
2023-03-08T21:40:52.748Z,1.67
2023-03-08T21:43:20.593Z,1.67
2023-03-08T21:45:48.809Z,3.08
2023-03-08T21:48:16.746Z,1.05
2023-03-08T21:50:44.626Z,2.00
2023-03-08T21:53:12.498Z,2.53
2023-03-08T21:55:42.445Z,1.33
2023-03-08T21:58:10.692Z,2.13
2023-03-08T22:00:38.480Z,1.65
2023-03-08T22:03:06.331Z,1.92
2023-03-08T22:05:34.297Z,1.67
2023-03-08T22:08:02.187Z,1.15
2023-03-08T22:10:30.248Z,1.05
2023-03-08T22:13:00.045Z,1.25
2023-03-08T22:15:28.017Z,2.38
2023-03-08T22:17:55.930Z,1.63
2023-03-08T22:20:23.975Z,1.55
2023-03-08T22:22:51.756Z,1.67
2023-03-08T22:25:19.910Z,1.35
2023-03-08T22:27:47.799Z,0.93
2023-03-08T22:30:17.277Z,1.13
2023-03-08T22:32:45.139Z,1.00
2023-03-08T22:35:13.532Z,1.45
2023-03-08T22:37:42.051Z,0.80
2023-03-08T22:40:12.899Z,2.00
2023-03-08T22:42:41.159Z,1.70
2023-03-08T22:45:10.171Z,1.45
2023-03-08T22:47:39.352Z,1.35
2023-03-08T22:50:08.049Z,1.42
2023-03-08T22:52:35.908Z,1.45
2023-03-08T22:55:04.282Z,0.80
2023-03-08T22:57:32.241Z,2.05
2023-03-08T23:00:00.252Z,2.08
2023-03-08T23:02:28.432Z,1.10
2023-03-08T23:04:58.992Z,2.03
2023-03-08T23:07:26.905Z,1.38
2023-03-08T23:09:54.798Z,1.42
2023-03-08T23:12:22.648Z,1.35
2023-03-08T23:14:50.456Z,0.95
2023-03-08T23:17:19.022Z,1.45
2023-03-08T23:19:46.822Z,1.77
2023-03-08T23:22:17.962Z,0.70
2023-03-08T23:24:46.004Z,1.10
2023-03-08T23:27:13.781Z,1.25
2023-03-08T23:29:41.565Z,0.50
2023-03-08T23:32:09.612Z,0.60
2023-03-08T23:34:37.725Z,0.50
2023-03-08T23:37:05.587Z,1.10
2023-03-08T23:39:35.054Z,0.50
2023-03-08T23:42:03.022Z,0.60
2023-03-08T23:44:30.845Z,1.10
2023-03-08T23:47:04.460Z,1.10
2023-03-08T23:49:32.373Z,0.80
2023-03-08T23:52:00.488Z,0.60
2023-03-08T23:54:28.374Z,0.60
2023-03-08T23:56:57.521Z,0.80
2023-03-08T23:59:25.322Z,1.13
